createdAt,value
2022-11-17T00:10:03.018Z,98026.38
2022-11-17T03:15:42.993Z,98206.50
2022-11-17T03:18:42.348Z,98206.69
2022-11-17T03:21:17.735Z,98204.44
2022-11-17T03:23:51.539Z,98206.00
2022-11-17T03:26:28.292Z,98183.28
2022-11-17T03:31:40.366Z,98205.78
2022-11-17T03:40:08.241Z,98227.25
2022-11-17T03:43:55.839Z,98224.53
2022-11-17T03:47:21.362Z,98228.03
2022-11-17T03:50:06.470Z,98232.13
2022-11-17T03:52:36.193Z,98231.16
2022-11-17T03:58:16.278Z,98239.81
2022-11-17T04:00:50.972Z,98244.97
2022-11-17T04:03:24.949Z,98250.56
2022-11-17T04:06:15.012Z,98258.81
2022-11-17T04:12:03.975Z,98261.56
2022-11-17T04:15:19.935Z,98259.50
2022-11-17T04:20:53.613Z,98249.47
2022-11-17T04:23:25.073Z,98255.09
2022-11-17T04:26:12.845Z,98254.13
2022-11-17T04:28:56.782Z,98264.44
2022-11-17T04:38:08.672Z,98289.28
2022-11-17T04:55:05.261Z,98298.06
2022-11-17T04:57:33.653Z,98297.75
2022-11-17T05:00:03.132Z,98300.56
2022-11-17T05:05:20.123Z,98290.00
2022-11-17T05:14:44.349Z,98290.75
2022-11-17T05:20:25.849Z,98308.53
2022-11-17T06:17:35.216Z,98326.91
2022-11-17T06:20:21.694Z,98339.50
2022-11-17T06:23:23.698Z,98343.69
2022-11-17T06:26:13.422Z,98344.59
2022-11-17T06:28:44.627Z,98342.16
2022-11-17T06:34:16.088Z,98343.22
2022-11-17T06:37:14.700Z,98350.22
2022-11-17T06:40:41.586Z,98356.22
2022-11-17T06:45:57.010Z,98354.66
2022-11-17T06:48:32.007Z,98357.75
2022-11-17T06:51:18.819Z,98350.28
2022-11-17T07:12:12.984Z,98347.34
2022-11-17T07:17:53.752Z,98360.63
2022-11-17T07:29:02.515Z,98371.81
2022-11-17T08:28:20.275Z,98436.72
2022-11-17T09:11:31.107Z,98482.47
2022-11-17T09:16:57.149Z,98474.66
2022-11-17T09:24:58.866Z,98475.72
2022-11-17T09:30:23.066Z,98488.59
2022-11-17T09:35:47.396Z,98480.38
2022-11-17T09:38:21.328Z,98478.78
2022-11-17T09:41:02.364Z,98489.69
2022-11-17T09:43:52.168Z,98493.41
2022-11-17T09:49:07.815Z,98497.97
2022-11-17T10:01:36.155Z,98504.16
2022-11-17T10:10:24.899Z,98512.06
2022-11-17T10:22:03.252Z,98525.16
2022-11-17T10:27:24.784Z,98533.81
2022-11-17T10:30:14.154Z,98531.56
2022-11-17T10:36:26.086Z,98534.69
2022-11-17T10:38:56.367Z,98533.66
2022-11-17T10:41:27.469Z,98529.53
2022-11-17T10:47:46.260Z,98531.63
2022-11-17T10:50:24.217Z,98530.41
2022-11-17T10:53:28.253Z,98521.09
2022-11-17T11:05:09.442Z,98517.38
2022-11-17T11:08:13.795Z,98535.97
2022-11-17T11:22:31.961Z,98541.16
2022-11-17T11:25:12.723Z,98544.03
2022-11-17T11:28:05.261Z,98536.41
2022-11-17T11:30:58.848Z,98531.44
2022-11-17T11:34:02.522Z,98536.38
2022-11-17T11:36:41.004Z,98535.56
2022-11-17T11:43:01.113Z,98541.16
2022-11-17T11:45:46.853Z,98541.16
2022-11-17T11:48:19.030Z,98529.78
2022-11-17T11:50:56.821Z,98534.31
2022-11-17T11:53:36.929Z,98527.50
2022-11-17T11:56:17.584Z,98544.25
2022-11-17T11:58:53.172Z,98534.72
2022-11-17T12:01:24.621Z,98532.88
2022-11-17T12:04:16.303Z,98549.63
2022-11-17T12:06:54.704Z,98536.59
2022-11-17T12:09:55.140Z,98529.56
2022-11-17T12:12:31.726Z,98535.34
2022-11-17T12:46:26.604Z,98551.25
2022-11-17T12:49:23.660Z,98543.00
2022-11-17T12:51:57.238Z,98559.16
2022-11-17T12:58:19.426Z,98542.59
2022-11-17T13:01:13.953Z,98572.41
2022-11-17T13:03:49.664Z,98558.34
2022-11-17T13:06:41.568Z,98559.97
2022-11-17T13:09:47.180Z,98550.69
2022-11-17T13:12:26.381Z,98564.34
2022-11-17T13:14:56.175Z,98555.00
2022-11-17T13:17:34.527Z,98563.09
2022-11-17T13:20:13.574Z,98575.31
2022-11-17T13:23:17.383Z,98567.84
2022-11-17T13:28:37.133Z,98558.94
2022-11-17T13:36:45.755Z,98576.41
2022-11-17T13:39:51.565Z,98591.66
2022-11-17T13:49:37.731Z,98598.84
2022-11-17T13:52:15.310Z,98594.72
2022-11-17T13:54:46.336Z,98586.25
2022-11-17T13:57:27.134Z,98582.31
2022-11-17T13:59:58.003Z,98583.78
2022-11-17T14:02:35.111Z,98591.84
2022-11-17T14:05:10.049Z,98594.09
2022-11-17T14:07:42.018Z,98594.75
2022-11-17T14:10:28.784Z,98595.34
2022-11-17T14:13:32.490Z,98591.84
2022-11-17T14:16:03.931Z,98596.59
2022-11-17T14:18:39.082Z,98619.78
2022-11-17T14:21:14.487Z,98608.78
2022-11-17T14:23:44.737Z,98599.22
2022-11-17T14:26:29.594Z,98603.34
2022-11-17T14:29:03.266Z,98605.78
2022-11-17T14:31:34.561Z,98607.44
2022-11-17T14:34:05.709Z,98614.72
2022-11-17T14:36:35.317Z,98615.31
2022-11-17T14:39:05.316Z,98616.16
2022-11-17T14:41:34.043Z,98630.53
2022-11-17T14:44:03.406Z,98630.34
2022-11-17T14:46:35.249Z,98639.47
2022-11-17T14:49:05.990Z,98632.84
2022-11-17T14:51:37.859Z,98638.25
2022-11-17T14:54:23.063Z,98648.81
2022-11-17T14:56:57.662Z,98659.34
2022-11-17T14:59:29.354Z,98648.59
2022-11-17T15:01:59.384Z,98654.19
2022-11-17T15:07:20.583Z,98670.31
2022-11-17T15:09:52.319Z,98684.59
2022-11-17T15:12:24.321Z,98680.03
2022-11-17T15:14:56.329Z,98677.09
2022-11-17T15:17:28.336Z,98680.09
2022-11-17T15:19:58.467Z,98677.38
2022-11-17T15:22:29.570Z,98690.34
2022-11-17T15:25:03.216Z,98698.75
2022-11-17T15:27:34.365Z,98688.56
2022-11-17T15:30:04.746Z,98703.41
2022-11-17T15:32:34.045Z,98694.09
2022-11-17T15:35:04.977Z,98695.97
2022-11-17T15:37:33.477Z,98703.81
2022-11-17T15:45:55.212Z,98713.53
2022-11-17T15:48:26.289Z,98709.56
2022-11-17T15:51:35.504Z,98714.75
2022-11-17T16:00:11.436Z,98719.28
2022-11-17T16:02:59.836Z,98713.88
2022-11-17T16:12:18.393Z,98729.75
2022-11-17T16:15:19.095Z,98741.53
2022-11-17T16:24:20.880Z,98751.88
2022-11-17T16:33:14.064Z,98762.97
2022-11-17T16:36:21.730Z,98754.25
2022-11-17T16:39:02.154Z,98763.91
2022-11-17T16:41:39.752Z,98764.13
2022-11-17T16:44:14.709Z,98771.97
2022-11-17T16:46:46.230Z,98781.03
2022-11-17T16:49:20.412Z,98790.19
2022-11-17T16:51:51.284Z,98780.28
2022-11-17T16:54:42.319Z,98776.13
2022-11-17T17:00:01.360Z,98783.72
2022-11-17T17:02:36.451Z,98788.25
2022-11-17T17:05:08.007Z,98797.25
2022-11-17T17:07:39.244Z,98800.13
2022-11-17T17:10:37.270Z,98795.13
2022-11-17T17:13:08.997Z,98803.19
2022-11-17T17:15:39.804Z,98812.63
2022-11-17T17:18:10.001Z,98827.53
2022-11-17T17:20:40.653Z,98820.31
2022-11-17T17:23:12.425Z,98818.66
2022-11-17T17:25:43.718Z,98817.72
2022-11-17T17:28:13.561Z,98835.94
2022-11-17T17:30:42.543Z,98828.91
2022-11-17T17:33:10.660Z,98838.25
2022-11-17T17:35:41.968Z,98827.47
2022-11-17T17:38:21.989Z,98840.31
2022-11-17T17:41:05.663Z,98823.06
2022-11-17T17:43:34.760Z,98827.31
2022-11-17T17:46:15.456Z,98831.56
2022-11-17T17:48:46.055Z,98837.59
2022-11-17T17:51:16.068Z,98845.44
2022-11-17T17:53:45.155Z,98842.56
2022-11-17T17:56:15.808Z,98850.81
2022-11-17T17:58:44.867Z,98850.25
2022-11-17T18:01:15.411Z,98859.56
2022-11-17T18:03:46.993Z,98868.06
2022-11-17T18:06:16.559Z,98864.13
2022-11-17T18:08:45.045Z,98857.16
2022-11-17T18:11:17.230Z,98857.53
2022-11-17T18:13:47.787Z,98848.06
2022-11-17T18:16:18.098Z,98880.75
2022-11-17T18:18:53.996Z,98872.03
2022-11-17T18:21:22.605Z,98886.53
2022-11-17T18:23:51.403Z,98886.53
2022-11-17T18:26:24.033Z,98871.28
2022-11-17T18:28:54.447Z,98892.56
2022-11-17T18:31:26.641Z,98878.22
2022-11-17T18:33:56.441Z,98892.69
2022-11-17T18:36:25.581Z,98883.59
2022-11-17T18:38:54.567Z,98916.84
2022-11-17T18:41:25.357Z,98905.47
2022-11-17T18:43:53.816Z,98894.72
2022-11-17T18:46:25.874Z,98895.38
2022-11-17T18:48:56.987Z,98894.78
2022-11-17T18:51:27.184Z,98909.88
2022-11-17T18:54:00.107Z,98901.19
2022-11-17T18:56:34.030Z,98918.19
2022-11-17T18:59:02.801Z,98906.44
2022-11-17T19:01:31.972Z,98902.91
2022-11-17T19:20:00.718Z,98927.34
2022-11-17T19:22:34.711Z,98935.47
2022-11-17T19:25:22.608Z,98922.03
2022-11-17T19:27:53.369Z,98931.03
2022-11-17T19:30:24.654Z,98935.56
2022-11-17T19:33:07.442Z,98940.06
2022-11-17T19:35:42.461Z,98940.94
2022-11-17T19:38:14.010Z,98923.38
2022-11-17T19:40:44.306Z,98952.50
2022-11-17T19:43:19.442Z,98944.47
2022-11-17T19:45:50.696Z,98961.97
2022-11-17T19:48:19.034Z,98947.09
2022-11-17T19:50:54.567Z,98950.59
2022-11-17T19:53:24.820Z,98975.13
2022-11-17T19:58:58.570Z,98983.00
2022-11-17T20:01:32.036Z,98969.94
2022-11-17T20:04:05.927Z,98972.91
2022-11-17T20:06:41.126Z,98984.66
2022-11-17T20:09:16.387Z,98983.84
2022-11-17T20:11:44.964Z,98999.56
2022-11-17T20:14:22.829Z,98996.97
2022-11-17T20:16:51.488Z,98994.09
2022-11-17T20:19:25.766Z,98991.34
2022-11-17T20:21:58.964Z,98996.31
2022-11-17T20:24:28.653Z,99017.91
2022-11-17T20:26:59.744Z,99023.91
2022-11-17T20:32:12.356Z,99018.47
2022-11-17T20:34:44.773Z,99022.19
2022-11-17T20:37:20.149Z,99021.34
2022-11-17T20:39:53.442Z,99038.66
2022-11-17T20:42:35.342Z,99013.84
2022-11-17T20:45:20.382Z,99047.53
2022-11-17T20:47:53.211Z,99032.25
2022-11-17T20:53:41.246Z,99059.22
2022-11-17T20:56:16.286Z,99036.41
2022-11-17T20:59:03.708Z,99036.22
2022-11-17T21:01:33.009Z,99051.69
2022-11-17T21:04:04.270Z,99057.34
2022-11-17T21:06:37.721Z,99068.78
2022-11-17T21:09:18.760Z,99058.81
2022-11-17T21:12:10.464Z,99060.47
2022-11-17T21:17:43.785Z,99048.34
2022-11-17T21:20:13.997Z,99056.06
2022-11-17T21:22:43.093Z,99062.44
2022-11-17T21:25:11.679Z,99070.94
2022-11-17T21:27:44.550Z,99081.13
2022-11-17T21:30:16.043Z,99081.38
2022-11-17T21:32:44.994Z,99076.47
2022-11-17T21:35:17.865Z,99099.63
2022-11-17T21:37:47.086Z,99073.88
2022-11-17T21:40:24.247Z,99106.09
2022-11-17T21:43:12.669Z,99097.41
2022-11-17T21:46:21.014Z,99113.34
2022-11-17T21:49:08.060Z,99102.69
2022-11-17T21:51:55.879Z,99105.19
2022-11-17T21:54:27.315Z,99111.22
2022-11-17T21:56:56.662Z,99120.22
2022-11-17T21:59:33.075Z,99114.31
2022-11-17T22:02:06.986Z,99126.84
2022-11-17T22:04:56.337Z,99118.41
2022-11-17T22:07:39.763Z,99108.22
2022-11-17T22:10:21.296Z,99127.19
2022-11-17T22:13:09.953Z,99127.38
2022-11-17T22:15:43.199Z,99123.25
2022-11-17T22:18:11.404Z,99112.81
2022-11-17T22:23:39.404Z,99152.53
2022-11-17T22:26:15.177Z,99147.00
2022-11-17T22:28:45.728Z,99149.53
2022-11-17T22:34:13.277Z,99151.00
2022-11-17T22:36:51.620Z,99148.03
2022-11-17T22:39:24.750Z,99157.16
2022-11-17T23:05:18.661Z,99193.34
2022-11-17T23:13:50.409Z,99191.69
2022-11-17T23:16:32.357Z,99202.03
2022-11-17T23:19:44.171Z,99183.66
2022-11-17T23:26:29.800Z,99192.41
2022-11-17T23:29:12.641Z,99204.75
2022-11-17T23:51:31.854Z,99233.81
2022-11-17T23:54:13.535Z,99221.88
2022-11-17T23:59:35.949Z,99236.91
